LiveATC.Net - Listen to live air traffic control over the Internet!


ICAO: KBUU  IATA: BUU   Airport: Burlington Municipal Airport
City: Burlington   State/Province: Wisconsin
Country: United States   Continent: North America
KBUU METAR Weather: KBUU 110755Z AUTO 02006KT 10SM SCT011 BKN017 OVC060 20/19 A3014 RMK AO2 T02030186 PWINO
KBUU Flight Activity (FlightAware)
KBUU Airport Info   (iFlightPlanner)
KBUU VFR Sectional Chart   (iFlightPlanner) 
KBUU IFR Low Altitude Chart   (iFlightPlanner) 
KBUU IFR High Altitude Chart   (iFlightPlanner) 

3CK/KBUU CTAF
Feed Status: UP   Listeners: 0
Listen in your browser - HTML5 player (in browser, HTML5)
Click here to listen with your own player (launches your MP3 player)
Archive Access: 3CK/KBUU CTAF
FacilityFrequency
Lake in the Hills CTAF123.050

NOTICE

Unauthorized use prohibited. See LiveATC.net Terms of Service


Airport/ARTCC Code
Frequency Search
(e.g., 124.400, 128.75)
Site-wide search
 


Browse Feeds
Top 50 Feeds
HF Oceanic Feeds
Coverage Map
Bad Weather Areas

LiveATC FAQ
Offer LiveATC feed
Contact LiveATC.net
Press Inquiries

LiveATC on iPhone
LiveATC on Android

LiveATC Mobile
(Mobile browser)

ATC Audio Archives
Interesting Recordings

LiveATC Forums


Home Page
About LiveATC.net


Terms of Use
Privacy Policy

AIRMETs/SIGMETs

FAA Airport Status
NAS Status
Arrival Demand


Server Software By:
Icecast.org
Liquidsoap